LOWILIPB

Guest
Details From LOWI - Innsbruck Kranebitten
To LIPB - Bolzano
Flight Number -
Tags Generated
Created
Modified
Stats Distance 48 nm / 89 km
Max Altitude 0 ft / 0 m
Waypoints 2
Social Downloads 9
Likes 0
Share VATSIM

Download

Looking for another format? Having issues loading an existing format? Contact us
Advertisement - Login to hide

Notes

Generated

Route

LOWI LIPB

ID Type Via Altitude Latitude Longitude Leg Dist Tot Dist Heading (true) Name
O LOWI APT - 0 ft / 0 m 47.25883˚ 11.33091˚ - 0 nm - -
O LIPB APT - 0 ft / 0 m 46.45463˚ 11.32653˚ 48 nm 48 nm 180° / 180° -

Altitude Profile

Advertisement - Login to hide

LOWI

Details ICAO LOWI (INN)
Name Innsbruck Kranebitten
Region Austria
Timezone Europe/Vienna (UTC+1.0)
Stats Elevation 1,906 ft / 581 m (AMSL)
Location 47.260226° 11.343967°
Runways 1
Magnetic Variation 3.019° E

METAR

LOWI 152150Z 28004KT 9999 FEW006 BKN014 M00/M02 Q1002 R08/29//95 NOSIG

Decode

TAF

TAF LOWI 151715Z 1518/1618 VRB02KT 7000 FEW004 SCT012 BKN018 TX02/1613Z TNM02/1607Z TEMPO 1518/1524 SCT004 BKN009 TEMPO 1524/1609 FEW001 BKN006 PROB30 1524/1609 0800 FZFG VV002 BECMG 1609/1611 9999 FEW010 BKN100 BECMG 1615/1617 8000 -SN SCT030 BKN060 TEMPO 1616/1618 1200 SN VV008

Decode

Departure Runways

ID Width Length Bearing (true) Bearing (mag) Surface Threshold Offset Overrun Length
08 148 ft / 45 m 6,545 ft / 1,995 m 81.02° 78.00° Asphalt 338 ft / 103 m 0 ft / 0 m
26 148 ft / 45 m 6,545 ft / 1,995 m 261.04° 258.02° Asphalt 0 ft / 0 m 0 ft / 0 m

LIPB

Details ICAO LIPB (BZO)
Name BOLZANO
Region Italy
Timezone Europe/Rome (UTC+1.0)
Stats Elevation 789 ft / 240 m (AMSL)
Location 46.458906° 11.326862°
Runways 2
Magnetic Variation 2.991° E

METAR

LIPB 152150Z 07001KT CAVOK 00/00 Q1000

Decode

TAF

TAF LIPB 151700Z 1518/1618 VRB05KT 8000 BKN050

Decode

Destination Runways

ID Width Length Bearing (true) Bearing (mag) Surface Threshold Offset Overrun Length
01 98 ft / 30 m 4,257 ft / 1,297 m 10.21° 7.22° Asphalt 0 ft / 0 m 0 ft / 0 m
01R 66 ft / 20 m 2,292 ft / 698 m 10.57° 7.58° Grass 0 ft / 0 m 0 ft / 0 m
19 98 ft / 30 m 4,257 ft / 1,297 m 190.22° 187.23° Asphalt 200 ft / 61 m 0 ft / 0 m
19L 66 ft / 20 m 2,292 ft / 698 m 190.58° 187.59° Grass 0 ft / 0 m 0 ft / 0 m

Approach Navaids

Runway Type Ident Frequency Range Bearing (true) Bearing (mag) Slope Elevation
01 Localiser IBZ 109.10 MHz 18 nm / 33 km 18.82° 15.82° - 789 ft / 240 m (AMSL)
01 DME IBZ 109.10 MHz 18 nm / 33 km - - - 789 ft / 240 m (AMSL)

Popular Alternatives